Time;durP1;ratioP1;P1;durP2;ratioP2;P2;SDS_P1;SDS_P2;PMS_P1;PMS_P2;Temp;Humidity;BMP_temperature;BMP_pressure;BME280_temperature;BME280_humidity;BME280_pressure;Samples;Min_cycle;Max_cycle;Signal;HPM_P1;HPM_P2
2022/05/13 00:01:08;;;;;;;10.25;4.63;;;17.80;99.90;;;;;;5093011;28;20205;-73
2022/05/13 00:03:36;;;;;;;12.88;4.57;;;17.70;99.90;;;;;;5092891;28;20209;-74
2022/05/13 00:06:04;;;;;;;8.25;3.33;;;17.70;99.90;;;;;;5093052;28;20661;-72
2022/05/13 00:08:33;;;;;;;9.55;4.88;;;17.70;99.90;;;;;;5092525;28;20224;-74
2022/05/13 00:11:03;;;;;;;6.57;4.07;;;17.60;99.90;;;;;;5092322;28;20740;-74
2022/05/13 00:13:30;;;;;;;5.10;3.80;;;17.40;99.90;;;;;;5091864;28;20229;-72
2022/05/13 00:15:57;;;;;;;8.18;4.05;;;17.30;99.90;;;;;;5092263;28;20811;-72
2022/05/13 00:18:24;;;;;;;6.57;3.58;;;17.30;99.90;;;;;;5092059;28;20293;-74
2022/05/13 00:20:51;;;;;;;5.75;3.03;;;17.40;99.90;;;;;;5092286;28;20201;-73
2022/05/13 00:23:18;;;;;;;5.50;3.28;;;17.30;99.90;;;;;;5091832;28;20623;-73
2022/05/13 00:25:45;;;;;;;6.75;3.20;;;17.40;99.90;;;;;;5092034;28;20672;-74
2022/05/13 00:28:15;;;;;;;7.70;3.38;;;17.50;99.90;;;;;;5091898;28;20206;-73
2022/05/13 00:30:44;;;;;;;7.03;3.53;;;17.50;99.90;;;;;;5092296;28;20197;-72
2022/05/13 00:33:11;;;;;;;10.90;4.93;;;17.40;99.90;;;;;;5091698;28;20605;-73
2022/05/13 00:35:40;;;;;;;6.80;4.13;;;17.40;99.90;;;;;;5092108;28;20251;-73
2022/05/13 00:38:07;;;;;;;8.38;3.58;;;17.50;99.90;;;;;;5091830;28;20237;-72
2022/05/13 00:40:35;;;;;;;12.82;4.07;;;17.50;99.90;;;;;;5092247;28;20251;-73
2022/05/13 00:43:06;;;;;;;6.72;3.40;;;17.40;99.90;;;;;;5092465;28;20205;-74
2022/05/13 00:45:35;;;;;;;7.07;3.30;;;17.40;99.90;;;;;;5092200;28;20209;-75
2022/05/13 00:48:03;;;;;;;4.78;3.67;;;17.50;99.90;;;;;;5092182;28;20259;-74
2022/05/13 00:50:32;;;;;;;5.32;3.17;;;17.50;99.90;;;;;;5090986;28;20254;-74
2022/05/13 00:53:00;;;;;;;5.43;3.88;;;17.50;99.90;;;;;;5091454;28;20209;-74
2022/05/13 00:55:31;;;;;;;6.65;3.65;;;17.50;99.90;;;;;;5091553;28;20263;-73
2022/05/13 00:58:00;;;;;;;5.80;3.97;;;17.70;99.90;;;;;;5091799;28;20206;-74
2022/05/13 01:00:28;;;;;;;5.75;3.35;;;17.80;99.90;;;;;;5091298;28;20214;-74
2022/05/13 01:02:56;;;;;;;11.00;3.42;;;17.90;99.90;;;;;;5091427;28;20205;-72
2022/05/13 01:05:24;;;;;;;3.78;3.28;;;18.00;99.90;;;;;;5091151;28;20212;-74
2022/05/13 01:07:52;;;;;;;8.40;4.18;;;18.00;99.90;;;;;;5091553;28;20202;-73
2022/05/13 01:10:23;;;;;;;8.38;3.58;;;18.00;99.90;;;;;;5091452;28;20232;-73
2022/05/13 01:12:56;;;;;;;6.80;4.13;;;17.90;99.90;;;;;;5091388;28;20202;-74
2022/05/13 01:15:26;;;;;;;6.65;3.25;;;18.00;99.90;;;;;;5090751;28;20233;-74
2022/05/13 01:18:07;;;;;;;17.27;4.82;;;17.70;99.90;;;;;;5091636;28;20205;-73
2022/05/13 01:20:38;;;;;;;6.60;4.53;;;17.70;99.90;;;;;;5091194;28;20198;-74
2022/05/13 01:23:09;;;;;;;5.60;3.30;;;17.60;99.90;;;;;;5091382;28;20205;-72
2022/05/13 01:25:42;;;;;;;4.93;3.40;;;17.60;99.90;;;;;;5091176;28;20208;-72
2022/05/13 01:28:12;;;;;;;6.63;3.72;;;17.70;99.90;;;;;;5090614;28;20251;-72
2022/05/13 01:30:44;;;;;;;7.20;3.20;;;17.70;99.90;;;;;;5091095;28;20738;-74
2022/05/13 01:33:12;;;;;;;9.45;3.42;;;17.60;99.90;;;;;;5090739;28;20254;-74
2022/05/13 01:35:40;;;;;;;6.25;3.80;;;17.60;99.90;;;;;;5091136;28;20198;-74
2022/05/13 01:38:10;;;;;;;7.93;4.50;;;17.70;99.90;;;;;;5090819;28;20205;-73
2022/05/13 01:40:37;;;;;;;6.50;2.85;;;17.70;99.90;;;;;;5090647;28;20206;-73
2022/05/13 01:43:05;;;;;;;6.88;3.15;;;17.70;99.90;;;;;;5091531;28;20209;-74
2022/05/13 01:45:33;;;;;;;8.55;3.63;;;17.60;99.90;;;;;;5090822;28;20209;-74
2022/05/13 01:48:00;;;;;;;5.22;3.58;;;17.70;99.90;;;;;;5091033;28;20251;-74
2022/05/13 01:50:27;;;;;;;7.68;4.00;;;17.60;99.90;;;;;;5090315;28;20578;-72
2022/05/13 01:52:54;;;;;;;4.43;3.03;;;17.60;99.90;;;;;;5090595;28;20688;-73
2022/05/13 01:55:23;;;;;;;7.95;3.50;;;17.50;99.90;;;;;;5090334;28;20236;-74
2022/05/13 01:57:51;;;;;;;5.35;3.20;;;17.50;99.90;;;;;;5091039;28;20275;-74
2022/05/13 02:00:19;;;;;;;10.32;4.60;;;17.50;99.90;;;;;;5090373;28;20262;-73
2022/05/13 02:05:31;;;;;;;8.93;3.38;;;17.40;99.90;;;;;;5090236;28;20209;-72
2022/05/13 02:07:58;;;;;;;6.35;3.53;;;17.30;99.90;;;;;;5090958;28;20202;-73
2022/05/13 02:10:26;;;;;;;4.00;3.03;;;17.20;99.90;;;;;;5090497;28;20206;-72
2022/05/13 02:12:53;;;;;;;6.68;4.03;;;17.20;99.90;;;;;;5090904;28;20202;-74
2022/05/13 02:15:20;;;;;;;5.35;4.28;;;17.20;99.90;;;;;;5090104;28;20719;-73
2022/05/13 02:17:47;;;;;;;9.30;3.53;;;17.10;99.90;;;;;;5090627;28;20205;-73
2022/05/13 02:20:14;;;;;;;6.40;3.40;;;17.10;99.90;;;;;;5089974;28;20201;-74
2022/05/13 02:22:41;;;;;;;7.45;3.72;;;17.00;99.90;;;;;;5090598;28;20209;-72
2022/05/13 02:25:09;;;;;;;5.93;3.63;;;17.10;99.90;;;;;;5090470;28;20259;-73
2022/05/13 02:27:37;;;;;;;9.73;3.50;;;17.10;99.90;;;;;;5090581;28;20259;-73
2022/05/13 02:30:06;;;;;;;8.13;3.60;;;17.10;99.90;;;;;;5090895;28;20201;-72
2022/05/13 02:32:33;;;;;;;4.97;3.53;;;17.10;99.90;;;;;;5093028;28;20201;-72
2022/05/13 02:35:00;;;;;;;4.85;4.13;;;17.10;99.90;;;;;;5075607;28;20287;-74
2022/05/13 02:37:27;;;;;;;6.20;3.22;;;17.00;99.90;;;;;;5073963;28;20649;-72
2022/05/13 02:39:54;;;;;;;8.70;4.15;;;17.00;99.90;;;;;;5074117;28;20252;-72
2022/05/13 02:42:21;;;;;;;7.63;3.97;;;17.10;99.90;;;;;;5073798;28;20199;-74
2022/05/13 02:44:50;;;;;;;7.75;4.05;;;17.10;99.90;;;;;;5073992;28;20203;-73
2022/05/13 02:47:17;;;;;;;6.55;3.50;;;17.10;99.90;;;;;;5073466;28;20256;-74
2022/05/13 02:49:44;;;;;;;6.20;3.88;;;17.10;99.90;;;;;;5073768;28;20210;-73
2022/05/13 02:52:11;;;;;;;6.45;4.43;;;17.10;99.90;;;;;;5073482;28;20199;-74
2022/05/13 02:54:39;;;;;;;5.15;3.78;;;17.10;99.90;;;;;;5073860;28;20230;-72
2022/05/13 02:57:06;;;;;;;5.90;3.97;;;17.10;99.90;;;;;;5074136;28;20252;-74
2022/05/13 02:59:34;;;;;;;5.82;3.47;;;17.10;99.90;;;;;;5073998;28;20248;-74
2022/05/13 03:02:02;;;;;;;5.47;2.95;;;17.10;99.90;;;;;;5073918;28;20210;-74
2022/05/13 03:04:29;;;;;;;8.15;3.90;;;17.10;99.90;;;;;;5072973;28;20206;-72
2022/05/13 03:06:56;;;;;;;6.82;4.18;;;17.20;99.90;;;;;;5073579;28;20790;-72
2022/05/13 03:09:23;;;;;;;8.30;4.45;;;17.20;99.90;;;;;;5073118;28;20202;-73
2022/05/13 03:11:52;;;;;;;10.70;4.25;;;17.20;99.90;;;;;;5073536;28;20198;-72
2022/05/13 03:14:19;;;;;;;6.00;3.45;;;17.20;99.90;;;;;;5072922;28;20237;-74
2022/05/13 03:16:46;;;;;;;10.90;4.40;;;17.20;99.90;;;;;;5073428;28;20202;-73
2022/05/13 03:19:14;;;;;;;9.88;3.42;;;17.20;99.90;;;;;;5072743;28;20242;-74
2022/05/13 03:21:41;;;;;;;8.48;4.75;;;17.30;99.90;;;;;;5073463;28;20652;-72
2022/05/13 03:24:08;;;;;;;11.43;5.05;;;17.20;99.90;;;;;;5072906;28;20551;-72
2022/05/13 03:26:35;;;;;;;15.00;5.15;;;17.20;99.90;;;;;;5073440;28;20202;-73
2022/05/13 03:29:02;;;;;;;6.43;4.00;;;17.30;99.90;;;;;;5073518;28;20210;-74
2022/05/13 03:31:29;;;;;;;5.82;4.43;;;17.10;99.90;;;;;;5072939;28;20264;-72
2022/05/13 03:33:56;;;;;;;5.43;3.42;;;17.10;99.90;;;;;;5073027;28;20577;-74
2022/05/13 03:36:24;;;;;;;5.03;4.05;;;17.20;99.90;;;;;;5072746;28;20198;-73
2022/05/13 03:38:51;;;;;;;6.07;3.65;;;17.20;99.90;;;;;;5073028;28;20202;-74
2022/05/13 03:41:18;;;;;;;10.32;4.30;;;17.10;99.90;;;;;;5072504;28;20206;-74
2022/05/13 03:43:45;;;;;;;9.02;4.07;;;17.10;99.90;;;;;;5072551;28;20658;-73
2022/05/13 03:46:12;;;;;;;6.95;3.72;;;17.20;99.90;;;;;;5072656;28;20214;-74
2022/05/13 03:48:39;;;;;;;7.60;4.15;;;17.20;99.90;;;;;;5072552;28;20661;-73
2022/05/13 03:51:06;;;;;;;5.68;3.85;;;17.20;99.90;;;;;;5072830;28;20198;-71
2022/05/13 03:53:35;;;;;;;7.88;4.60;;;17.20;99.90;;;;;;5073040;28;20202;-74
2022/05/13 03:56:02;;;;;;;9.43;3.58;;;17.20;99.90;;;;;;5072847;28;20295;-73
2022/05/13 03:58:30;;;;;;;6.90;4.10;;;17.20;99.90;;;;;;5072403;28;20198;-73
2022/05/13 04:00:57;;;;;;;5.50;3.78;;;17.10;99.90;;;;;;5072774;28;20215;-74
2022/05/13 04:03:24;;;;;;;8.40;4.82;;;17.00;99.90;;;;;;5071762;28;20616;-74
2022/05/13 04:11:21;;;;;;;7.13;4.25;;;16.90;99.90;;;;;;5071919;28;20209;-74
2022/05/13 04:16:32;;;;;;;10.00;4.68;;;17.00;99.90;;;;;;5072012;28;20295;-72
2022/05/13 04:18:59;;;;;;;16.13;4.93;;;17.00;99.90;;;;;;5072180;28;20202;-73
2022/05/13 04:21:29;;;;;;;6.93;4.22;;;17.10;99.90;;;;;;5072070;28;20206;-74
2022/05/13 04:23:59;;;;;;;8.93;4.35;;;17.20;99.90;;;;;;5072210;28;20579;-74
2022/05/13 04:26:26;;;;;;;7.05;4.13;;;17.10;99.90;;;;;;5071800;28;20597;-73
2022/05/13 04:28:55;;;;;;;7.57;3.53;;;17.10;99.90;;;;;;5072111;28;20202;-73
2022/05/13 04:31:24;;;;;;;9.10;4.60;;;17.20;99.90;;;;;;5071386;28;20248;-73
2022/05/13 04:33:52;;;;;;;8.23;4.22;;;17.10;99.90;;;;;;5072186;28;20252;-74
2022/05/13 04:36:20;;;;;;;9.93;5.07;;;17.20;99.90;;;;;;5071653;28;20283;-73
2022/05/13 04:38:48;;;;;;;8.98;3.88;;;17.10;99.90;;;;;;5071805;28;20210;-72
2022/05/13 04:44:01;;;;;;;5.75;4.00;;;17.00;99.90;;;;;;5072089;28;20276;-73
2022/05/13 04:46:29;;;;;;;7.68;3.63;;;17.00;99.90;;;;;;5071092;28;20264;-72
2022/05/13 04:48:56;;;;;;;9.25;4.65;;;17.00;99.90;;;;;;5071716;28;20214;-74
2022/05/13 04:51:23;;;;;;;7.22;4.30;;;17.10;99.90;;;;;;5070978;28;20665;-74
2022/05/13 04:53:52;;;;;;;10.40;4.72;;;17.00;99.90;;;;;;5071216;28;20657;-72
2022/05/13 04:56:22;;;;;;;10.60;5.38;;;17.10;99.90;;;;;;5071066;28;20766;-74
2022/05/13 04:58:49;;;;;;;6.03;3.88;;;17.10;99.90;;;;;;5070094;28;20614;-72
2022/05/13 05:01:17;;;;;;;6.50;4.85;;;17.20;99.90;;;;;;5071281;28;20206;-73
2022/05/13 05:03:44;;;;;;;6.15;5.22;;;17.20;99.90;;;;;;5070540;28;20202;-72
2022/05/13 05:06:12;;;;;;;8.30;4.35;;;17.20;99.90;;;;;;5071258;28;20206;-73
2022/05/13 05:08:40;;;;;;;4.80;4.30;;;17.30;99.90;;;;;;5070699;28;20210;-72
2022/05/13 05:11:08;;;;;;;11.52;6.28;;;17.30;99.90;;;;;;5070939;28;20198;-71
2022/05/13 05:13:38;;;;;;;8.63;5.18;;;17.40;99.90;;;;;;5071218;28;20202;-73
2022/05/13 05:16:06;;;;;;;12.63;5.70;;;17.50;99.90;;;;;;5071295;28;20287;-74
2022/05/13 05:18:34;;;;;;;14.80;5.18;;;17.60;99.90;;;;;;5071004;28;20698;-72
2022/05/13 05:21:01;;;;;;;11.18;4.38;;;17.70;99.90;;;;;;5070984;28;20207;-72
2022/05/13 05:23:31;;;;;;;10.00;4.85;;;17.80;99.90;;;;;;5070551;28;20202;-74
2022/05/13 05:25:59;;;;;;;7.50;4.45;;;17.90;99.90;;;;;;5070635;28;20618;-73
2022/05/13 05:28:27;;;;;;;13.27;5.22;;;18.00;99.90;;;;;;5070554;28;20678;-74
2022/05/13 05:30:57;;;;;;;7.45;4.63;;;18.20;99.90;;;;;;5070989;28;20202;-74
2022/05/13 05:33:24;;;;;;;8.07;4.88;;;18.40;99.90;;;;;;5070908;28;20202;-72
2022/05/13 05:35:51;;;;;;;12.38;5.40;;;18.50;99.90;;;;;;5070739;28;20230;-72
2022/05/13 05:38:18;;;;;;;8.95;5.03;;;18.50;99.90;;;;;;5070884;28;20198;-74
2022/05/13 05:40:45;;;;;;;9.15;5.28;;;18.40;99.90;;;;;;5070351;28;20206;-72
2022/05/13 05:43:16;;;;;;;7.93;5.50;;;18.10;99.90;;;;;;5070817;28;20247;-73
2022/05/13 05:45:43;;;;;;;11.90;6.25;;;17.90;99.90;;;;;;5070409;28;20263;-74
2022/05/13 05:48:13;;;;;;;8.05;5.85;;;17.90;99.90;;;;;;5070701;28;20264;-72
2022/05/13 05:50:41;;;;;;;5.88;5.28;;;18.00;99.90;;;;;;5069965;28;20214;-72
2022/05/13 05:53:08;;;;;;;14.65;7.55;;;18.10;99.90;;;;;;5070970;28;20570;-71
2022/05/13 05:58:20;;;;;;;9.07;6.10;;;17.90;99.90;;;;;;5070747;28;20212;-72
2022/05/13 06:00:49;;;;;;;9.25;7.22;;;17.80;99.90;;;;;;5070285;28;20212;-73
2022/05/13 06:03:18;;;;;;;12.77;7.65;;;17.80;99.90;;;;;;5070811;28;20259;-74
2022/05/13 06:05:47;;;;;;;8.23;6.78;;;17.80;99.90;;;;;;5070994;28;20602;-72
2022/05/13 06:08:14;;;;;;;10.88;7.30;;;17.90;99.90;;;;;;5074669;28;20661;-71
2022/05/13 06:10:41;;;;;;;15.10;7.82;;;18.00;99.90;;;;;;5074116;28;20626;-72
2022/05/13 06:13:10;;;;;;;13.30;7.97;;;18.00;99.90;;;;;;5074984;28;20251;-74
2022/05/13 06:15:37;;;;;;;10.40;8.43;;;18.10;99.90;;;;;;5074296;28;20226;-73
2022/05/13 06:18:04;;;;;;;10.85;9.30;;;18.20;99.90;;;;;;5074772;28;20206;-73
2022/05/13 06:20:33;;;;;;;13.50;8.77;;;18.20;99.90;;;;;;5074142;28;20206;-72
2022/05/13 06:23:00;;;;;;;12.18;9.93;;;18.10;99.90;;;;;;5074538;28;20206;-72
2022/05/13 06:25:27;;;;;;;12.20;9.80;;;18.20;99.90;;;;;;5073706;28;20206;-71
2022/05/13 06:27:55;;;;;;;15.52;9.85;;;18.30;99.90;;;;;;5074287;28;20279;-72
2022/05/13 06:30:25;;;;;;;10.80;9.70;;;18.30;99.90;;;;;;5074328;28;20224;-72
2022/05/13 06:32:53;;;;;;;10.00;9.05;;;18.40;99.90;;;;;;5074437;28;20206;-73
2022/05/13 06:35:22;;;;;;;13.15;9.25;;;18.50;99.90;;;;;;5074049;28;20578;-72
2022/05/13 06:37:51;;;;;;;11.15;9.77;;;18.60;99.90;;;;;;5073819;28;20267;-73
2022/05/13 06:40:18;;;;;;;19.25;10.80;;;18.90;99.90;;;;;;5073856;28;20632;-73
2022/05/13 06:42:45;;;;;;;12.48;10.13;;;19.00;99.90;;;;;;5073733;28;20206;-73
2022/05/13 06:45:12;;;;;;;10.20;9.30;;;19.20;99.90;;;;;;5073944;28;20206;-73
2022/05/13 06:47:39;;;;;;;12.52;9.90;;;19.20;99.90;;;;;;5073994;28;20259;-74
2022/05/13 06:50:09;;;;;;;12.95;10.48;;;19.30;99.90;;;;;;5074207;28;20217;-74
2022/05/13 06:52:36;;;;;;;15.73;10.43;;;19.40;99.90;;;;;;5073494;28;20259;-74
2022/05/13 06:55:07;;;;;;;12.63;10.23;;;19.40;99.90;;;;;;5073688;28;20198;-72
2022/05/13 06:57:34;;;;;;;10.98;9.57;;;19.60;99.90;;;;;;5073353;28;20206;-71
2022/05/13 07:00:01;;;;;;;11.30;10.00;;;19.90;99.90;;;;;;5073886;28;20214;-72
2022/05/13 07:02:29;;;;;;;13.77;9.32;;;20.10;99.90;;;;;;5073442;28;20206;-73
2022/05/13 07:04:56;;;;;;;10.45;9.45;;;20.30;99.90;;;;;;5073541;28;20198;-72
2022/05/13 07:07:23;;;;;;;12.90;9.75;;;20.30;99.90;;;;;;5073367;28;20202;-72
2022/05/13 07:09:50;;;;;;;10.10;9.07;;;19.90;99.90;;;;;;5073428;28;20213;-72
2022/05/13 07:12:18;;;;;;;12.13;10.85;;;20.30;99.90;;;;;;5073476;28;20206;-72
2022/05/13 07:14:45;;;;;;;10.40;9.27;;;19.90;99.90;;;;;;5073020;28;20557;-73
2022/05/13 07:17:12;;;;;;;11.02;9.52;;;19.70;99.90;;;;;;5072679;28;20287;-72
2022/05/13 07:19:39;;;;;;;10.73;9.35;;;20.20;99.90;;;;;;5073309;28;20259;-71
2022/05/13 07:22:06;;;;;;;11.57;9.40;;;20.30;99.90;;;;;;5073335;28;20666;-75
2022/05/13 07:24:33;;;;;;;12.18;9.95;;;20.80;99.90;;;;;;5072908;28;20751;-75
2022/05/13 07:27:00;;;;;;;11.63;9.40;;;20.80;99.90;;;;;;5073432;28;20232;-74
2022/05/13 07:29:30;;;;;;;13.85;10.70;;;20.60;99.90;;;;;;5072908;28;20256;-75
2022/05/13 07:31:56;;;;;;;15.07;9.65;;;20.30;99.90;;;;;;5073226;28;20202;-75
2022/05/13 07:34:23;;;;;;;18.52;11.52;;;20.40;99.90;;;;;;5073186;28;20259;-75
2022/05/13 07:36:53;;;;;;;10.35;8.75;;;20.30;99.90;;;;;;5072650;28;20226;-75
2022/05/13 07:42:05;;;;;;;11.00;9.30;;;20.50;99.90;;;;;;5072905;28;20197;-75
2022/05/13 07:44:34;;;;;;;13.18;10.70;;;20.80;99.90;;;;;;5072557;28;20248;-75
2022/05/13 07:47:01;;;;;;;9.43;8.63;;;20.90;99.90;;;;;;5072890;28;20210;-75
2022/05/13 07:49:29;;;;;;;11.43;10.07;;;21.20;99.90;;;;;;5072406;28;20264;-75
2022/05/13 07:51:56;;;;;;;11.50;9.40;;;21.50;99.90;;;;;;5072402;28;20206;-75
2022/05/13 07:54:23;;;;;;;12.13;9.98;;;22.20;99.90;;;;;;5072723;28;20742;-75
2022/05/13 07:56:50;;;;;;;10.38;9.43;;;22.30;99.90;;;;;;5072216;28;20283;-76
2022/05/13 07:59:17;;;;;;;10.70;9.63;;;22.20;99.90;;;;;;5073051;28;20256;-75
2022/05/13 08:01:45;;;;;;;15.00;9.32;;;21.80;99.90;;;;;;5072035;28;20247;-74
2022/05/13 08:04:12;;;;;;;10.73;9.65;;;22.00;99.90;;;;;;5073046;28;20210;-74
2022/05/13 08:06:39;;;;;;;11.65;9.40;;;22.20;99.90;;;;;;5072175;28;20301;-75
2022/05/13 08:09:07;;;;;;;10.90;8.23;;;22.20;99.90;;;;;;5072503;28;20252;-75
2022/05/13 08:11:34;;;;;;;11.20;8.15;;;21.90;99.90;;;;;;5072075;28;20202;-75
2022/05/13 08:14:01;;;;;;;13.82;8.57;;;21.60;99.90;;;;;;5072367;28;20206;-75
2022/05/13 08:16:29;;;;;;;10.02;7.70;;;21.80;99.90;;;;;;5071523;28;20252;-75
2022/05/13 08:19:00;;;;;;;9.45;7.90;;;22.20;99.90;;;;;;5072400;28;20210;-75
2022/05/13 08:21:26;;;;;;;9.40;7.85;;;22.40;99.90;;;;;;5071720;28;20212;-75
2022/05/13 08:23:53;;;;;;;10.93;7.47;;;23.00;99.90;;;;;;5072261;28;20202;-74
2022/05/13 08:26:20;;;;;;;8.13;7.30;;;22.90;99.90;;;;;;5072114;28;20202;-75
2022/05/13 08:28:47;;;;;;;9.77;6.65;;;22.60;99.90;;;;;;5070928;28;20203;-76
2022/05/13 08:31:14;;;;;;;11.50;7.93;;;23.10;99.90;;;;;;5071746;28;20252;-75
2022/05/13 08:33:42;;;;;;;10.18;8.30;;;23.20;99.90;;;;;;5071846;28;20210;-75
2022/05/13 08:36:10;;;;;;;8.13;6.93;;;23.40;99.90;;;;;;5072010;28;20230;-72
2022/05/13 08:38:39;;;;;;;8.98;6.78;;;22.90;99.90;;;;;;5071456;28;20205;-75
2022/05/13 08:41:28;;;;;;;8.15;6.50;;;23.20;99.90;;;;;;5072163;28;20206;-73
2022/05/13 08:44:00;;;;;;;9.23;7.35;;;22.60;99.90;;;;;;5071702;28;20288;-74
2022/05/13 08:46:36;;;;;;;7.25;6.53;;;23.20;99.90;;;;;;5071271;28;20206;-74
2022/05/13 08:49:10;;;;;;;7.80;6.53;;;22.70;99.90;;;;;;5071387;28;20263;-74
2022/05/13 08:51:51;;;;;;;12.82;8.55;;;22.80;99.90;;;;;;5071168;28;20213;-75
2022/05/13 08:54:21;;;;;;;8.00;7.28;;;23.00;99.90;;;;;;5071626;28;20230;-76
2022/05/13 08:56:51;;;;;;;9.77;8.77;;;22.50;99.90;;;;;;5071044;28;20329;-75
2022/05/13 08:59:22;;;;;;;8.57;7.70;;;22.30;99.90;;;;;;5071773;28;20206;-76
2022/05/13 09:01:54;;;;;;;9.40;7.43;;;22.10;99.90;;;;;;5071159;28;20626;-75
2022/05/13 09:04:32;;;;;;;11.45;7.75;;;22.10;99.90;;;;;;5071035;28;20213;-75
2022/05/13 09:07:03;;;;;;;8.38;7.28;;;22.10;99.90;;;;;;5071340;28;20202;-75
2022/05/13 09:09:31;;;;;;;9.88;7.60;;;22.00;99.90;;;;;;5070923;28;20202;-75
2022/05/13 09:12:08;;;;;;;11.32;10.02;;;21.80;99.90;;;;;;5071237;28;20256;-74
2022/05/13 09:14:41;;;;;;;8.50;7.55;;;21.80;99.90;;;;;;5070637;28;20646;-75
2022/05/13 09:17:29;;;;;;;7.78;7.10;;;21.70;99.90;;;;;;5070782;28;20274;-74
2022/05/13 09:20:00;;;;;;;11.02;7.88;;;21.60;99.90;;;;;;5071128;28;20248;-75
2022/05/13 09:22:36;;;;;;;10.75;7.10;;;21.70;99.90;;;;;;5070704;28;20206;-75
2022/05/13 09:25:04;;;;;;;10.40;6.88;;;21.70;99.90;;;;;;5071022;28;20239;-74
2022/05/13 09:27:44;;;;;;;9.20;6.90;;;21.70;99.90;;;;;;5070818;28;20218;-73
2022/05/13 09:30:12;;;;;;;8.80;7.90;;;21.70;99.90;;;;;;5070980;28;20198;-75
2022/05/13 09:32:39;;;;;;;10.70;7.53;;;21.70;99.90;;;;;;5070479;28;20201;-76
2022/05/13 09:35:15;;;;;;;12.15;7.82;;;21.50;99.90;;;;;;5070857;28;20267;-75
2022/05/13 09:37:44;;;;;;;9.10;8.20;;;21.30;99.90;;;;;;5070720;28;20310;-74
2022/05/13 09:40:24;;;;;;;8.10;7.30;;;21.20;99.90;;;;;;5071123;28;20213;-73
2022/05/13 09:42:53;;;;;;;9.13;8.02;;;21.20;99.90;;;;;;5070894;28;20202;-74
2022/05/13 09:45:25;;;;;;;10.13;8.65;;;21.10;99.90;;;;;;5070905;28;20202;-75
2022/05/13 09:48:17;;;;;;;12.15;8.57;;;21.20;99.90;;;;;;5070499;28;20206;-75
2022/05/13 09:50:49;;;;;;;11.27;8.77;;;21.30;99.90;;;;;;5070409;28;20548;-74
2022/05/13 09:53:34;;;;;;;15.10;12.25;;;21.50;99.90;;;;;;5070714;28;20206;-75
2022/05/13 09:56:03;;;;;;;10.25;9.20;;;21.70;99.90;;;;;;5070609;28;20202;-75
2022/05/13 09:58:34;;;;;;;8.75;7.85;;;22.20;99.90;;;;;;5070217;28;20248;-75
2022/05/13 10:01:04;;;;;;;8.30;7.15;;;22.70;99.90;;;;;;5070231;28;20202;-75
2022/05/13 10:03:36;;;;;;;8.18;7.03;;;23.20;99.90;;;;;;5070100;28;20210;-75
2022/05/13 10:06:17;;;;;;;8.20;7.32;;;23.60;99.90;;;;;;5070592;28;20198;-76
2022/05/13 10:08:54;;;;;;;8.20;7.43;;;24.20;99.90;;;;;;5070394;28;20653;-73
2022/05/13 10:14:28;;;;;;;7.80;6.82;;;24.30;99.90;;;;;;5070707;28;20720;-72
2022/05/13 10:16:59;;;;;;;8.40;7.40;;;24.10;99.90;;;;;;5070039;28;20236;-74
2022/05/13 10:19:42;;;;;;;11.05;7.15;;;23.30;99.90;;;;;;5070053;28;20202;-72
2022/05/13 10:22:17;;;;;;;11.82;7.93;;;23.80;99.90;;;;;;5070463;28;20210;-72
2022/05/13 10:24:52;;;;;;;8.07;7.32;;;25.50;99.90;;;;;;5070379;28;20202;-73
2022/05/13 10:27:27;;;;;;;7.38;6.72;;;25.70;99.90;;;;;;5070414;28;20274;-74
2022/05/13 10:29:58;;;;;;;8.10;7.32;;;25.20;99.90;;;;;;5069811;28;20206;-73
2022/05/13 10:32:32;;;;;;;7.97;7.28;;;25.10;99.90;;;;;;5070027;28;20206;-73
2022/05/13 10:35:05;;;;;;;9.10;7.88;;;24.70;99.90;;;;;;5070278;28;20755;-74
2022/05/13 10:37:40;;;;;;;7.88;7.10;;;25.20;99.90;;;;;;5069900;28;20336;-74
2022/05/13 10:40:13;;;;;;;8.13;6.55;;;24.80;99.90;;;;;;5070179;28;20241;-74
2022/05/13 10:42:43;;;;;;;9.55;8.00;;;24.20;99.90;;;;;;5069902;28;20234;-74
2022/05/13 10:45:17;;;;;;;10.02;8.38;;;24.00;99.90;;;;;;5070113;28;20233;-74
2022/05/13 10:47:47;;;;;;;10.00;8.85;;;23.80;99.90;;;;;;5070113;28;20213;-73
2022/05/13 10:50:17;;;;;;;11.45;8.60;;;23.50;99.90;;;;;;5070175;28;20259;-73
2022/05/13 10:52:55;;;;;;;8.13;7.32;;;24.60;99.90;;;;;;5070313;28;20198;-72
2022/05/13 10:55:31;;;;;;;10.82;8.23;;;25.30;99.90;;;;;;5073649;28;20218;-73
2022/05/13 10:58:21;;;;;;;7.80;7.00;;;24.20;99.90;;;;;;5073767;28;20245;-74
2022/05/13 11:00:55;;;;;;;8.15;6.38;;;24.40;99.90;;;;;;5073316;28;20673;-73
2022/05/13 11:03:34;;;;;;;7.72;6.93;;;24.20;99.90;;;;;;5073469;28;20705;-74
2022/05/13 11:06:25;;;;;;;9.77;8.82;;;24.20;99.90;;;;;;5073497;28;20202;-74
2022/05/13 11:09:00;;;;;;;9.73;8.27;;;24.00;99.90;;;;;;5073725;28;20210;-74
2022/05/13 11:11:38;;;;;;;9.23;8.38;;;23.90;99.90;;;;;;5073066;28;20278;-74
2022/05/13 11:14:16;;;;;;;12.35;10.93;;;23.80;99.90;;;;;;5073142;28;20645;-73
2022/05/13 11:16:55;;;;;;;9.10;7.03;;;23.80;99.90;;;;;;5072834;28;20241;-73
2022/05/13 11:19:30;;;;;;;12.90;7.60;;;23.70;99.90;;;;;;5073419;28;20233;-73
2022/05/13 11:22:03;;;;;;;8.75;7.85;;;23.60;99.90;;;;;;5073299;28;20734;-74
2022/05/13 11:28:02;;;;;;;6.90;6.18;;;24.70;99.90;;;;;;5073307;28;20207;-72
2022/05/13 11:30:38;;;;;;;6.78;6.07;;;25.20;99.90;;;;;;5072845;28;20233;-74
2022/05/13 11:33:20;;;;;;;7.93;6.20;;;25.40;99.90;;;;;;5073071;28;20198;-74
2022/05/13 11:35:59;;;;;;;6.63;6.03;;;25.30;99.90;;;;;;5072914;28;20734;-74
2022/05/13 11:38:39;;;;;;;8.30;5.90;;;25.30;99.90;;;;;;5072515;28;20269;-73
2022/05/13 11:41:11;;;;;;;9.85;6.80;;;25.90;99.90;;;;;;5072818;28;20679;-73
2022/05/13 11:43:47;;;;;;;8.43;7.72;;;26.10;99.90;;;;;;5072399;28;20201;-73
2022/05/13 11:46:37;;;;;;;9.00;6.53;;;25.80;99.90;;;;;;5072985;28;20237;-73
2022/05/13 11:49:11;;;;;;;7.70;5.65;;;26.10;99.90;;;;;;5072500;28;20693;-73
2022/05/13 11:51:38;;;;;;;10.20;6.32;;;25.60;99.90;;;;;;5072413;28;20233;-73
2022/05/13 11:54:24;;;;;;;6.50;5.65;;;25.40;99.90;;;;;;5072865;28;20248;-74
2022/05/13 11:57:12;;;;;;;7.20;6.47;;;25.00;99.90;;;;;;5072902;28;20271;-73
2022/05/13 11:59:47;;;;;;;7.97;6.72;;;24.60;99.90;;;;;;5072045;28;20209;-73
2022/05/13 12:02:29;;;;;;;8.85;6.68;;;24.50;99.90;;;;;;5072595;28;20209;-73
2022/05/13 12:05:20;;;;;;;8.32;7.63;;;24.70;99.90;;;;;;5072001;28;20205;-73
2022/05/13 12:07:53;;;;;;;6.05;5.50;;;24.90;99.90;;;;;;5071202;28;20681;-73
2022/05/13 12:10:27;;;;;;;9.00;6.75;;;25.00;99.90;;;;;;5072722;28;20256;-73
2022/05/13 12:13:13;;;;;;;6.80;6.20;;;24.70;99.90;;;;;;5072118;28;20673;-74
2022/05/13 12:16:03;;;;;;;7.00;6.30;;;24.30;99.90;;;;;;5071977;28;20614;-73
2022/05/13 12:18:37;;;;;;;7.03;6.32;;;24.90;99.90;;;;;;5071663;28;20763;-73
2022/05/13 12:21:15;;;;;;;7.90;6.63;;;25.00;99.90;;;;;;5072263;28;20274;-76
2022/05/13 12:23:48;;;;;;;8.30;6.13;;;24.80;99.90;;;;;;5071887;28;20202;-74
2022/05/13 12:26:15;;;;;;;12.52;7.15;;;25.10;99.90;;;;;;5071815;28;20202;-73
2022/05/13 12:29:02;;;;;;;8.88;6.30;;;25.40;99.90;;;;;;5071547;28;20647;-73
2022/05/13 12:31:45;;;;;;;6.35;5.85;;;25.60;99.90;;;;;;5071376;28;20586;-73
2022/05/13 12:40:07;;;;;;;9.65;6.25;;;25.50;99.90;;;;;;5070062;28;20205;-73
2022/05/13 12:42:40;;;;;;;9.23;5.75;;;24.90;99.90;;;;;;5071259;28;20233;-76
2022/05/13 12:45:12;;;;;;;6.75;6.05;;;25.30;99.90;;;;;;5071616;28;20202;-73
2022/05/13 12:48:12;;;;;;;7.82;6.28;;;25.20;99.90;;;;;;5071300;28;20202;-75
2022/05/13 12:50:42;;;;;;;9.07;6.55;;;25.60;99.90;;;;;;5071014;28;20206;-74
2022/05/13 12:53:37;;;;;;;6.45;5.85;;;25.90;99.90;;;;;;5071297;28;20198;-74
2022/05/13 12:56:23;;;;;;;5.60;5.10;;;26.20;99.90;;;;;;5058636;28;20248;-73
2022/05/13 12:59:01;;;;;;;5.85;5.28;;;26.30;99.90;;;;;;5071606;28;20717;-74
2022/05/13 13:01:30;;;;;;;6.10;5.50;;;27.00;99.90;;;;;;5071004;28;20255;-73
2022/05/13 13:03:58;;;;;;;10.95;5.55;;;26.60;99.90;;;;;;5071240;28;20233;-74
2022/05/13 13:06:35;;;;;;;7.60;5.55;;;27.00;99.90;;;;;;5070834;28;20623;-74
2022/05/13 13:09:02;;;;;;;6.40;4.75;;;27.30;99.90;;;;;;5071065;28;20255;-72
2022/05/13 13:11:36;;;;;;;6.70;6.00;;;26.50;99.90;;;;;;5070555;28;20359;-74
2022/05/13 13:14:13;;;;;;;7.00;5.30;;;25.90;99.90;;;;;;5071214;28;20295;-74
2022/05/13 13:16:45;;;;;;;6.72;6.10;;;26.10;99.90;;;;;;5070159;28;20244;-74
2022/05/13 13:19:18;;;;;;;7.72;6.78;;;26.10;99.90;;;;;;5071096;28;20230;-74
2022/05/13 13:21:46;;;;;;;6.05;5.55;;;25.70;99.90;;;;;;5070746;28;20249;-73
2022/05/13 13:24:17;;;;;;;6.95;5.35;;;25.50;99.90;;;;;;5070840;28;20948;-73
2022/05/13 13:26:48;;;;;;;9.43;6.25;;;25.40;99.90;;;;;;5070610;28;20229;-74
2022/05/13 13:29:19;;;;;;;8.18;6.13;;;25.40;99.90;;;;;;5070974;28;20234;-74
2022/05/13 13:31:51;;;;;;;6.45;5.95;;;25.70;99.90;;;;;;5070641;28;20263;-73